sensor_id;sensor_type;location;lat;lon;timestamp;noise_LAeq;noise_LA_min;noise_LA_max;noise_LA01;noise_LA95
37163;Laerm;23057;48.554;14.454;2023-10-31T00:01:40;38.06;34.69;40.62;;
37163;Laerm;23057;48.554;14.454;2023-10-31T00:04:11;38.00;35.04;40.71;;
37163;Laerm;23057;48.554;14.454;2023-10-31T00:06:42;38.05;34.31;40.33;;
37163;Laerm;23057;48.554;14.454;2023-10-31T00:09:13;38.06;34.31;40.33;;
37163;Laerm;23057;48.554;14.454;2023-10-31T00:11:44;38.09;34.31;40.53;;
37163;Laerm;23057;48.554;14.454;2023-10-31T00:14:15;38.08;35.01;40.33;;
37163;Laerm;23057;48.554;14.454;2023-10-31T00:16:45;38.07;33.90;40.23;;
37163;Laerm;23057;48.554;14.454;2023-10-31T00:19:19;38.09;33.90;40.43;;
37163;Laerm;23057;48.554;14.454;2023-10-31T00:21:50;38.10;35.04;40.80;;
37163;Laerm;23057;48.554;14.454;2023-10-31T00:24:20;38.16;34.69;40.71;;
37163;Laerm;23057;48.554;14.454;2023-10-31T00:26:51;38.14;35.04;40.62;;
37163;Laerm;23057;48.554;14.454;2023-10-31T00:29:22;38.16;34.69;40.62;;
37163;Laerm;23057;48.554;14.454;2023-10-31T00:31:53;38.21;35.04;40.62;;
37163;Laerm;23057;48.554;14.454;2023-10-31T00:34:24;38.19;34.31;40.53;;
37163;Laerm;23057;48.554;14.454;2023-10-31T00:36:55;38.21;35.04;40.62;;
37163;Laerm;23057;48.554;14.454;2023-10-31T00:39:25;38.23;34.31;40.89;;
37163;Laerm;23057;48.554;14.454;2023-10-31T00:41:56;38.22;34.69;41.06;;
37163;Laerm;23057;48.554;14.454;2023-10-31T00:44:27;38.27;34.31;40.62;;
37163;Laerm;23057;48.554;14.454;2023-10-31T00:46:58;38.29;34.69;40.71;;
37163;Laerm;23057;48.554;14.454;2023-10-31T00:49:28;38.30;35.04;40.63;;
37163;Laerm;23057;48.554;14.454;2023-10-31T00:51:59;38.35;35.04;40.89;;
37163;Laerm;23057;48.554;14.454;2023-10-31T00:54:30;38.34;32.93;40.53;;
37163;Laerm;23057;48.554;14.454;2023-10-31T00:57:01;38.37;34.31;40.80;;
37163;Laerm;23057;48.554;14.454;2023-10-31T00:59:32;38.39;35.04;40.89;;
37163;Laerm;23057;48.554;14.454;2023-10-31T01:02:03;38.41;35.04;40.98;;
37163;Laerm;23057;48.554;14.454;2023-10-31T01:04:36;38.43;35.36;40.71;;
37163;Laerm;23057;48.554;14.454;2023-10-31T01:07:07;38.45;35.36;40.62;;
37163;Laerm;23057;48.554;14.454;2023-10-31T01:09:43;38.49;35.36;40.80;;
37163;Laerm;23057;48.554;14.454;2023-10-31T01:12:14;38.53;34.69;40.98;;
37163;Laerm;23057;48.554;14.454;2023-10-31T01:14:45;38.54;35.66;41.14;;
37163;Laerm;23057;48.554;14.454;2023-10-31T01:17:16;38.62;35.36;40.89;;
37163;Laerm;23057;48.554;14.454;2023-10-31T01:19:47;38.65;35.94;43.99;;
37163;Laerm;23057;48.554;14.454;2023-10-31T01:22:18;38.69;35.66;41.06;;
37163;Laerm;23057;48.554;14.454;2023-10-31T01:24:49;38.73;35.94;40.71;;
37163;Laerm;23057;48.554;14.454;2023-10-31T01:27:19;38.75;35.94;40.80;;
37163;Laerm;23057;48.554;14.454;2023-10-31T01:29:50;38.76;35.94;40.80;;
37163;Laerm;23057;48.554;14.454;2023-10-31T01:32:21;38.77;35.36;41.06;;
37163;Laerm;23057;48.554;14.454;2023-10-31T01:34:52;38.81;35.94;40.80;;
37163;Laerm;23057;48.554;14.454;2023-10-31T01:37:23;38.88;35.66;40.98;;
37163;Laerm;23057;48.554;14.454;2023-10-31T01:39:53;38.95;36.45;41.46;;
37163;Laerm;23057;48.554;14.454;2023-10-31T01:42:24;38.95;36.45;41.06;;
37163;Laerm;23057;48.554;14.454;2023-10-31T01:44:55;39.01;36.20;41.06;;
37163;Laerm;23057;48.554;14.454;2023-10-31T01:47:26;39.01;36.91;41.06;;
37163;Laerm;23057;48.554;14.454;2023-10-31T01:49:57;39.06;36.20;41.14;;
37163;Laerm;23057;48.554;14.454;2023-10-31T01:52:29;39.10;36.69;41.06;;
37163;Laerm;23057;48.554;14.454;2023-10-31T01:55:05;39.11;36.69;41.30;;
37163;Laerm;23057;48.554;14.454;2023-10-31T01:57:36;39.15;36.69;41.06;;
37163;Laerm;23057;48.554;14.454;2023-10-31T02:00:07;39.19;36.69;41.22;;
37163;Laerm;23057;48.554;14.454;2023-10-31T02:02:41;39.20;36.69;41.06;;
37163;Laerm;23057;48.554;14.454;2023-10-31T02:05:13;39.23;36.45;41.14;;
37163;Laerm;23057;48.554;14.454;2023-10-31T02:07:45;39.21;36.77;41.22;;
37163;Laerm;23057;48.554;14.454;2023-10-31T02:10:17;39.24;37.12;40.89;;
37163;Laerm;23057;48.554;14.454;2023-10-31T02:12:48;39.19;36.45;41.14;;
37163;Laerm;23057;48.554;14.454;2023-10-31T02:15:18;39.22;36.91;41.19;;
37163;Laerm;23057;48.554;14.454;2023-10-31T02:17:49;39.17;37.12;41.14;;
37163;Laerm;23057;48.554;14.454;2023-10-31T02:20:20;39.14;36.91;41.06;;
37163;Laerm;23057;48.554;14.454;2023-10-31T02:22:51;39.14;36.69;41.06;;
37163;Laerm;23057;48.554;14.454;2023-10-31T02:25:21;39.12;36.56;40.98;;
37163;Laerm;23057;48.554;14.454;2023-10-31T02:27:52;39.08;36.69;40.98;;
37163;Laerm;23057;48.554;14.454;2023-10-31T02:30:24;39.06;36.34;41.06;;
37163;Laerm;23057;48.554;14.454;2023-10-31T02:32:55;39.05;35.94;41.22;;
37163;Laerm;23057;48.554;14.454;2023-10-31T02:35:26;39.03;35.66;41.06;;
37163;Laerm;23057;48.554;14.454;2023-10-31T02:37:57;39.00;36.45;41.38;;
37163;Laerm;23057;48.554;14.454;2023-10-31T02:40:27;38.97;36.20;41.22;;
37163;Laerm;23057;48.554;14.454;2023-10-31T02:42:58;38.94;36.45;40.89;;
37163;Laerm;23057;48.554;14.454;2023-10-31T02:45:29;38.92;36.20;40.80;;
37163;Laerm;23057;48.554;14.454;2023-10-31T02:48:00;38.89;36.20;41.14;;
37163;Laerm;23057;48.554;14.454;2023-10-31T02:50:31;38.86;36.20;41.14;;
37163;Laerm;23057;48.554;14.454;2023-10-31T02:53:02;38.85;35.94;40.89;;
37163;Laerm;23057;48.554;14.454;2023-10-31T02:55:33;38.82;36.20;40.89;;
37163;Laerm;23057;48.554;14.454;2023-10-31T02:58:04;38.83;35.66;40.63;;
37163;Laerm;23057;48.554;14.454;2023-10-31T03:00:35;38.78;36.20;40.98;;
37163;Laerm;23057;48.554;14.454;2023-10-31T03:03:05;38.77;36.20;41.22;;
37163;Laerm;23057;48.554;14.454;2023-10-31T03:05:36;38.75;35.94;41.14;;
37163;Laerm;23057;48.554;14.454;2023-10-31T03:08:07;38.73;35.66;40.71;;
37163;Laerm;23057;48.554;14.454;2023-10-31T03:10:41;38.73;35.36;40.98;;
37163;Laerm;23057;48.554;14.454;2023-10-31T03:13:12;38.77;35.94;40.89;;
37163;Laerm;23057;48.554;14.454;2023-10-31T03:15:45;38.73;35.66;41.06;;
37163;Laerm;23057;48.554;14.454;2023-10-31T03:18:16;38.70;35.66;40.71;;
37163;Laerm;23057;48.554;14.454;2023-10-31T03:20:46;38.67;35.94;40.71;;
37163;Laerm;23057;48.554;14.454;2023-10-31T03:23:17;38.67;35.86;40.89;;
37163;Laerm;23057;48.554;14.454;2023-10-31T03:25:48;38.68;35.66;40.98;;
37163;Laerm;23057;48.554;14.454;2023-10-31T03:28:20;38.69;36.20;40.80;;
37163;Laerm;23057;48.554;14.454;2023-10-31T03:30:53;38.68;35.04;40.89;;
37163;Laerm;23057;48.554;14.454;2023-10-31T03:33:24;38.68;35.66;41.14;;
37163;Laerm;23057;48.554;14.454;2023-10-31T03:35:55;38.69;35.66;40.80;;
37163;Laerm;23057;48.554;14.454;2023-10-31T03:38:26;38.68;35.94;40.80;;
37163;Laerm;23057;48.554;14.454;2023-10-31T03:40:57;38.68;36.20;40.62;;
37163;Laerm;23057;48.554;14.454;2023-10-31T03:43:28;38.70;35.66;40.98;;
37163;Laerm;23057;48.554;14.454;2023-10-31T03:45:59;38.68;35.94;40.71;;
37163;Laerm;23057;48.554;14.454;2023-10-31T03:48:30;38.68;35.94;40.71;;
37163;Laerm;23057;48.554;14.454;2023-10-31T03:51:02;38.69;36.20;41.06;;
37163;Laerm;23057;48.554;14.454;2023-10-31T03:53:32;38.69;35.94;40.98;;
37163;Laerm;23057;48.554;14.454;2023-10-31T03:56:04;38.70;36.20;40.80;;
37163;Laerm;23057;48.554;14.454;2023-10-31T03:58:35;38.70;35.66;40.89;;
37163;Laerm;23057;48.554;14.454;2023-10-31T04:01:05;38.72;36.20;40.89;;
37163;Laerm;23057;48.554;14.454;2023-10-31T04:03:36;38.73;35.94;40.80;;
37163;Laerm;23057;48.554;14.454;2023-10-31T04:06:07;38.76;35.66;40.71;;
37163;Laerm;23057;48.554;14.454;2023-10-31T04:08:38;38.76;36.20;40.80;;
37163;Laerm;23057;48.554;14.454;2023-10-31T04:11:09;38.79;36.20;40.98;;
37163;Laerm;23057;48.554;14.454;2023-10-31T04:13:40;38.79;35.94;40.80;;
37163;Laerm;23057;48.554;14.454;2023-10-31T04:16:10;38.78;35.66;41.06;;
37163;Laerm;23057;48.554;14.454;2023-10-31T04:18:41;38.80;36.20;40.80;;
37163;Laerm;23057;48.554;14.454;2023-10-31T04:21:12;38.83;36.20;40.80;;
37163;Laerm;23057;48.554;14.454;2023-10-31T04:23:43;38.85;36.20;40.98;;
37163;Laerm;23057;48.554;14.454;2023-10-31T04:26:14;38.88;36.45;40.89;;
37163;Laerm;23057;48.554;14.454;2023-10-31T04:28:46;38.90;36.45;41.06;;
37163;Laerm;23057;48.554;14.454;2023-10-31T04:31:17;38.93;36.20;40.89;;
37163;Laerm;23057;48.554;14.454;2023-10-31T04:33:48;38.94;36.20;40.89;;
37163;Laerm;23057;48.554;14.454;2023-10-31T04:36:18;38.95;36.45;40.80;;
37163;Laerm;23057;48.554;14.454;2023-10-31T04:38:49;38.96;35.94;41.14;;
37163;Laerm;23057;48.554;14.454;2023-10-31T04:41:20;38.95;36.20;40.89;;
37163;Laerm;23057;48.554;14.454;2023-10-31T04:43:51;38.94;36.20;40.89;;
37163;Laerm;23057;48.554;14.454;2023-10-31T04:46:22;38.96;36.45;40.98;;
37163;Laerm;23057;48.554;14.454;2023-10-31T04:48:52;38.91;35.94;40.80;;
37163;Laerm;23057;48.554;14.454;2023-10-31T04:51:24;38.94;36.45;40.89;;
37163;Laerm;23057;48.554;14.454;2023-10-31T04:53:54;38.92;36.34;41.06;;
37163;Laerm;23057;48.554;14.454;2023-10-31T04:56:25;38.92;36.45;40.98;;
37163;Laerm;23057;48.554;14.454;2023-10-31T04:58:56;38.89;36.20;41.06;;
37163;Laerm;23057;48.554;14.454;2023-10-31T05:01:27;38.89;35.94;40.80;;
37163;Laerm;23057;48.554;14.454;2023-10-31T05:03:58;38.87;36.20;40.89;;
37163;Laerm;23057;48.554;14.454;2023-10-31T05:06:29;38.87;35.94;41.03;;
37163;Laerm;23057;48.554;14.454;2023-10-31T05:08:59;38.84;35.66;41.14;;
37163;Laerm;23057;48.554;14.454;2023-10-31T05:11:30;38.86;36.20;40.98;;
37163;Laerm;23057;48.554;14.454;2023-10-31T05:14:02;38.85;36.20;40.71;;
37163;Laerm;23057;48.554;14.454;2023-10-31T05:16:41;38.83;36.20;40.89;;
37163;Laerm;23057;48.554;14.454;2023-10-31T05:19:12;38.82;36.45;40.80;;
37163;Laerm;23057;48.554;14.454;2023-10-31T05:21:43;38.81;36.20;44.97;;
37163;Laerm;23057;48.554;14.454;2023-10-31T05:24:14;38.72;36.20;41.38;;
37163;Laerm;23057;48.554;14.454;2023-10-31T05:26:46;38.71;35.66;40.80;;
37163;Laerm;23057;48.554;14.454;2023-10-31T05:29:16;38.71;36.20;40.71;;
37163;Laerm;23057;48.554;14.454;2023-10-31T05:31:47;38.72;35.94;40.71;;
37163;Laerm;23057;48.554;14.454;2023-10-31T05:34:18;38.75;35.94;40.98;;
37163;Laerm;23057;48.554;14.454;2023-10-31T05:36:49;38.74;35.59;41.14;;
37163;Laerm;23057;48.554;14.454;2023-10-31T05:39:20;38.73;35.94;40.80;;
37163;Laerm;23057;48.554;14.454;2023-10-31T05:41:50;38.73;35.66;40.80;;
37163;Laerm;23057;48.554;14.454;2023-10-31T05:44:21;38.74;35.94;40.71;;
37163;Laerm;23057;48.554;14.454;2023-10-31T05:46:52;38.73;35.94;41.38;;
37163;Laerm;23057;48.554;14.454;2023-10-31T05:49:23;38.75;35.94;41.14;;
37163;Laerm;23057;48.554;14.454;2023-10-31T05:51:54;38.73;35.94;40.62;;
37163;Laerm;23057;48.554;14.454;2023-10-31T05:54:24;38.93;36.20;61.51;;
37163;Laerm;23057;48.554;14.454;2023-10-31T05:56:56;38.76;36.10;40.80;;
37163;Laerm;23057;48.554;14.454;2023-10-31T05:59:27;38.74;35.36;40.80;;
37163;Laerm;23057;48.554;14.454;2023-10-31T06:01:58;38.74;35.94;40.98;;
37163;Laerm;23057;48.554;14.454;2023-10-31T06:04:29;38.77;36.20;40.71;;
37163;Laerm;23057;48.554;14.454;2023-10-31T06:07:00;38.74;35.94;40.62;;
37163;Laerm;23057;48.554;14.454;2023-10-31T06:09:31;38.76;36.20;40.62;;
37163;Laerm;23057;48.554;14.454;2023-10-31T06:12:04;38.72;36.20;40.71;;
37163;Laerm;23057;48.554;14.454;2023-10-31T06:14:37;38.75;35.66;46.84;;
37163;Laerm;23057;48.554;14.454;2023-10-31T06:17:08;38.63;36.20;40.71;;
37163;Laerm;23057;48.554;14.454;2023-10-31T06:19:38;38.64;35.66;40.80;;
37163;Laerm;23057;48.554;14.454;2023-10-31T06:22:15;38.67;35.36;41.46;;
37163;Laerm;23057;48.554;14.454;2023-10-31T06:24:46;38.66;36.20;41.14;;
37163;Laerm;23057;48.554;14.454;2023-10-31T06:27:17;38.69;36.45;40.71;;
37163;Laerm;23057;48.554;14.454;2023-10-31T06:29:48;38.69;35.66;41.06;;
37163;Laerm;23057;48.554;14.454;2023-10-31T06:32:19;38.70;35.94;40.89;;
37163;Laerm;23057;48.554;14.454;2023-10-31T06:34:50;38.72;36.20;40.62;;
37163;Laerm;23057;48.554;14.454;2023-10-31T06:37:20;38.71;35.66;40.80;;
37163;Laerm;23057;48.554;14.454;2023-10-31T06:39:51;38.71;35.94;40.89;;
37163;Laerm;23057;48.554;14.454;2023-10-31T06:42:22;38.70;35.94;40.80;;
37163;Laerm;23057;48.554;14.454;2023-10-31T06:44:53;38.69;35.94;40.80;;
37163;Laerm;23057;48.554;14.454;2023-10-31T06:47:24;38.71;35.94;40.89;;
37163;Laerm;23057;48.554;14.454;2023-10-31T06:49:55;38.70;35.94;40.98;;
37163;Laerm;23057;48.554;14.454;2023-10-31T06:52:25;38.70;36.20;40.89;;
37163;Laerm;23057;48.554;14.454;2023-10-31T06:54:56;38.68;35.66;40.80;;
37163;Laerm;23057;48.554;14.454;2023-10-31T06:57:27;38.68;35.94;41.06;;
37163;Laerm;23057;48.554;14.454;2023-10-31T06:59:58;38.71;35.66;40.98;;
37163;Laerm;23057;48.554;14.454;2023-10-31T07:02:28;38.71;36.10;40.80;;
37163;Laerm;23057;48.554;14.454;2023-10-31T07:05:01;38.68;35.04;40.62;;
37163;Laerm;23057;48.554;14.454;2023-10-31T07:07:32;38.66;35.36;40.62;;
37163;Laerm;23057;48.554;14.454;2023-10-31T07:10:03;38.66;35.94;40.80;;
37163;Laerm;23057;48.554;14.454;2023-10-31T07:12:34;38.62;35.94;40.89;;
37163;Laerm;23057;48.554;14.454;2023-10-31T07:15:06;38.63;35.36;40.89;;
37163;Laerm;23057;48.554;14.454;2023-10-31T07:17:37;38.61;36.20;40.71;;
37163;Laerm;23057;48.554;14.454;2023-10-31T07:20:08;38.64;35.36;40.63;;
37163;Laerm;23057;48.554;14.454;2023-10-31T07:22:39;38.62;35.94;40.89;;
37163;Laerm;23057;48.554;14.454;2023-10-31T07:25:13;38.60;35.66;40.71;;
37163;Laerm;23057;48.554;14.454;2023-10-31T07:27:44;38.61;35.66;40.89;;
37163;Laerm;23057;48.554;14.454;2023-10-31T07:30:15;38.56;35.36;40.71;;
37163;Laerm;23057;48.554;14.454;2023-10-31T07:32:46;38.57;35.36;41.06;;
37163;Laerm;23057;48.554;14.454;2023-10-31T07:35:16;38.54;35.86;40.89;;
37163;Laerm;23057;48.554;14.454;2023-10-31T07:37:47;38.54;35.94;40.62;;
37163;Laerm;23057;48.554;14.454;2023-10-31T07:40:19;38.56;35.36;40.98;;
37163;Laerm;23057;48.554;14.454;2023-10-31T07:42:50;38.55;35.66;40.71;;
37163;Laerm;23057;48.554;14.454;2023-10-31T07:45:20;38.55;35.66;40.80;;
37163;Laerm;23057;48.554;14.454;2023-10-31T07:47:51;38.52;35.66;40.62;;
37163;Laerm;23057;48.554;14.454;2023-10-31T07:50:22;38.48;35.94;40.71;;
37163;Laerm;23057;48.554;14.454;2023-10-31T07:52:53;38.43;35.66;40.80;;
37163;Laerm;23057;48.554;14.454;2023-10-31T07:55:24;38.42;35.36;40.71;;
37163;Laerm;23057;48.554;14.454;2023-10-31T07:57:54;38.36;35.66;40.80;;
37163;Laerm;23057;48.554;14.454;2023-10-31T08:00:25;38.35;34.69;40.62;;
37163;Laerm;23057;48.554;14.454;2023-10-31T08:02:57;38.38;35.04;40.80;;
37163;Laerm;23057;48.554;14.454;2023-10-31T08:05:28;38.37;35.31;40.89;;
37163;Laerm;23057;48.554;14.454;2023-10-31T08:07:58;38.36;35.04;40.62;;
37163;Laerm;23057;48.554;14.454;2023-10-31T08:10:29;38.34;35.04;40.80;;
37163;Laerm;23057;48.554;14.454;2023-10-31T08:13:00;38.35;35.36;40.53;;
37163;Laerm;23057;48.554;14.454;2023-10-31T08:15:31;38.36;35.36;40.43;;
37163;Laerm;23057;48.554;14.454;2023-10-31T08:18:02;38.36;35.04;40.43;;
37163;Laerm;23057;48.554;14.454;2023-10-31T08:20:33;43.04;34.69;58.44;;
37163;Laerm;23057;48.554;14.454;2023-10-31T08:23:04;46.81;34.69;57.68;;
37163;Laerm;23057;48.554;14.454;2023-10-31T08:25:35;38.28;34.69;40.62;;
37163;Laerm;23057;48.554;14.454;2023-10-31T08:28:06;38.24;35.31;40.53;;
37163;Laerm;23057;48.554;14.454;2023-10-31T08:30:37;38.26;35.04;40.71;;
37163;Laerm;23057;48.554;14.454;2023-10-31T08:33:09;38.26;35.04;40.43;;
37163;Laerm;23057;48.554;14.454;2023-10-31T08:35:40;38.28;34.69;40.53;;
37163;Laerm;23057;48.554;14.454;2023-10-31T08:38:12;38.22;34.69;40.62;;
37163;Laerm;23057;48.554;14.454;2023-10-31T08:40:43;38.22;34.69;40.89;;
37163;Laerm;23057;48.554;14.454;2023-10-31T08:43:14;38.25;34.69;56.17;;
37163;Laerm;23057;48.554;14.454;2023-10-31T08:45:44;38.21;34.69;40.53;;
37163;Laerm;23057;48.554;14.454;2023-10-31T08:48:15;38.20;34.69;40.43;;
37163;Laerm;23057;48.554;14.454;2023-10-31T08:50:46;38.21;34.69;40.62;;
37163;Laerm;23057;48.554;14.454;2023-10-31T08:53:17;38.20;35.04;40.33;;
37163;Laerm;23057;48.554;14.454;2023-10-31T08:55:49;38.18;34.69;40.33;;
37163;Laerm;23057;48.554;14.454;2023-10-31T08:58:20;38.19;34.69;40.23;;
37163;Laerm;23057;48.554;14.454;2023-10-31T09:00:51;38.18;34.69;40.43;;
37163;Laerm;23057;48.554;14.454;2023-10-31T09:03:22;38.20;34.31;40.80;;
37163;Laerm;23057;48.554;14.454;2023-10-31T09:05:52;38.17;34.69;40.62;;
37163;Laerm;23057;48.554;14.454;2023-10-31T09:08:23;38.19;35.04;40.53;;
37163;Laerm;23057;48.554;14.454;2023-10-31T09:10:54;38.20;35.04;40.53;;
37163;Laerm;23057;48.554;14.454;2023-10-31T09:13:25;38.21;33.90;40.43;;
37163;Laerm;23057;48.554;14.454;2023-10-31T09:15:56;38.18;34.69;40.62;;
37163;Laerm;23057;48.554;14.454;2023-10-31T09:18:27;38.19;35.04;40.98;;
37163;Laerm;23057;48.554;14.454;2023-10-31T09:20:58;38.22;34.69;40.62;;
37163;Laerm;23057;48.554;14.454;2023-10-31T09:23:29;38.24;34.69;40.53;;
37163;Laerm;23057;48.554;14.454;2023-10-31T09:26:00;38.23;35.04;40.43;;
37163;Laerm;23057;48.554;14.454;2023-10-31T09:28:31;38.24;35.31;40.71;;
37163;Laerm;23057;48.554;14.454;2023-10-31T09:31:02;38.26;35.04;40.43;;
37163;Laerm;23057;48.554;14.454;2023-10-31T09:33:32;38.28;35.36;40.53;;
37163;Laerm;23057;48.554;14.454;2023-10-31T09:36:04;38.31;35.31;41.46;;
37163;Laerm;23057;48.554;14.454;2023-10-31T09:38:35;38.28;34.31;40.53;;
37163;Laerm;23057;48.554;14.454;2023-10-31T09:41:06;38.26;34.31;40.43;;
37163;Laerm;23057;48.554;14.454;2023-10-31T09:43:37;38.28;35.36;40.62;;
37163;Laerm;23057;48.554;14.454;2023-10-31T09:46:09;38.27;34.31;40.53;;
37163;Laerm;23057;48.554;14.454;2023-10-31T09:48:41;38.27;35.36;40.71;;
37163;Laerm;23057;48.554;14.454;2023-10-31T09:51:12;38.28;35.04;40.80;;
37163;Laerm;23057;48.554;14.454;2023-10-31T09:53:46;38.29;35.36;40.80;;
37163;Laerm;23057;48.554;14.454;2023-10-31T09:56:18;38.31;34.31;40.43;;
37163;Laerm;23057;48.554;14.454;2023-10-31T09:58:49;38.30;35.04;40.62;;
37163;Laerm;23057;48.554;14.454;2023-10-31T10:01:20;38.34;34.69;41.06;;
37163;Laerm;23057;48.554;14.454;2023-10-31T10:03:52;38.34;35.04;40.62;;
37163;Laerm;23057;48.554;14.454;2023-10-31T10:06:25;38.33;35.36;41.22;;
37163;Laerm;23057;48.554;14.454;2023-10-31T10:08:56;38.35;35.04;40.53;;
37163;Laerm;23057;48.554;14.454;2023-10-31T10:11:27;38.36;35.04;40.54;;
37163;Laerm;23057;48.554;14.454;2023-10-31T10:13:59;38.35;35.36;41.14;;
37163;Laerm;23057;48.554;14.454;2023-10-31T10:16:32;38.36;35.01;40.45;;
37163;Laerm;23057;48.554;14.454;2023-10-31T10:19:21;38.36;35.36;40.53;;
37163;Laerm;23057;48.554;14.454;2023-10-31T10:21:58;38.37;35.36;40.62;;
37163;Laerm;23057;48.554;14.454;2023-10-31T10:24:29;38.35;35.36;40.53;;
37163;Laerm;23057;48.554;14.454;2023-10-31T10:27:00;38.40;35.66;40.71;;
37163;Laerm;23057;48.554;14.454;2023-10-31T10:29:31;38.42;35.36;40.80;;
37163;Laerm;23057;48.554;14.454;2023-10-31T10:32:06;38.43;35.04;40.89;;
37163;Laerm;23057;48.554;14.454;2023-10-31T10:34:42;38.44;35.36;40.71;;
37163;Laerm;23057;48.554;14.454;2023-10-31T10:37:13;38.43;35.04;40.71;;
37163;Laerm;23057;48.554;14.454;2023-10-31T10:39:48;38.44;35.04;40.53;;
37163;Laerm;23057;48.554;14.454;2023-10-31T10:42:46;38.46;35.66;40.53;;
37163;Laerm;23057;48.554;14.454;2023-10-31T10:45:20;38.48;35.04;40.71;;
37163;Laerm;23057;48.554;14.454;2023-10-31T10:47:55;38.49;35.94;40.80;;
37163;Laerm;23057;48.554;14.454;2023-10-31T10:50:34;38.49;35.36;40.53;;
37163;Laerm;23057;48.554;14.454;2023-10-31T10:53:19;38.50;35.94;41.14;;
37163;Laerm;23057;48.554;14.454;2023-10-31T10:55:59;38.49;35.59;40.53;;
37163;Laerm;23057;48.554;14.454;2023-10-31T10:59:01;38.42;35.04;41.14;;
37163;Laerm;23057;48.554;14.454;2023-10-31T11:01:35;38.39;35.36;40.89;;
37163;Laerm;23057;48.554;14.454;2023-10-31T11:04:08;38.37;35.59;40.53;;
37163;Laerm;23057;48.554;14.454;2023-10-31T11:06:40;38.35;35.04;40.62;;
37163;Laerm;23057;48.554;14.454;2023-10-31T11:09:14;38.30;35.36;40.53;;
37163;Laerm;23057;48.554;14.454;2023-10-31T11:11:46;38.24;35.36;40.53;;
37163;Laerm;23057;48.554;14.454;2023-10-31T11:14:20;38.26;34.69;40.62;;
37163;Laerm;23057;48.554;14.454;2023-10-31T11:16:56;38.28;35.36;40.71;;
37163;Laerm;23057;48.554;14.454;2023-10-31T11:19:31;38.29;34.69;40.98;;
37163;Laerm;23057;48.554;14.454;2023-10-31T11:22:05;38.27;35.04;40.89;;
37163;Laerm;23057;48.554;14.454;2023-10-31T11:24:37;38.31;34.31;40.33;;
37163;Laerm;23057;48.554;14.454;2023-10-31T11:27:09;38.31;35.04;40.71;;
37163;Laerm;23057;48.554;14.454;2023-10-31T11:29:40;38.29;35.04;40.71;;
37163;Laerm;23057;48.554;14.454;2023-10-31T11:32:12;38.31;35.36;40.71;;
37163;Laerm;23057;48.554;14.454;2023-10-31T11:34:43;38.32;35.36;40.33;;
37163;Laerm;23057;48.554;14.454;2023-10-31T11:37:32;38.33;35.04;40.98;;
37163;Laerm;23057;48.554;14.454;2023-10-31T11:40:24;38.32;35.36;40.62;;
37163;Laerm;23057;48.554;14.454;2023-10-31T11:43:07;38.33;34.69;40.43;;
37163;Laerm;23057;48.554;14.454;2023-10-31T11:48:11;38.28;35.66;40.43;;
37163;Laerm;23057;48.554;14.454;2023-10-31T11:50:42;38.28;35.36;40.53;;
37163;Laerm;23057;48.554;14.454;2023-10-31T11:53:15;38.27;35.04;40.43;;
37163;Laerm;23057;48.554;14.454;2023-10-31T11:55:47;38.27;35.04;40.98;;
37163;Laerm;23057;48.554;14.454;2023-10-31T11:58:24;38.26;35.04;40.89;;
37163;Laerm;23057;48.554;14.454;2023-10-31T12:01:06;38.29;35.04;40.71;;
37163;Laerm;23057;48.554;14.454;2023-10-31T12:03:43;38.31;35.04;40.71;;
37163;Laerm;23057;48.554;14.454;2023-10-31T12:06:22;38.31;35.04;40.80;;
37163;Laerm;23057;48.554;14.454;2023-10-31T12:08:52;38.32;33.44;40.62;;
37163;Laerm;23057;48.554;14.454;2023-10-31T12:11:23;38.34;34.69;40.79;;
37163;Laerm;23057;48.554;14.454;2023-10-31T12:14:03;38.34;34.69;40.53;;
37163;Laerm;23057;48.554;14.454;2023-10-31T12:16:35;38.33;34.31;40.80;;
37163;Laerm;23057;48.554;14.454;2023-10-31T12:19:06;38.34;35.04;40.53;;
37163;Laerm;23057;48.554;14.454;2023-10-31T12:21:45;38.35;35.36;40.62;;
37163;Laerm;23057;48.554;14.454;2023-10-31T12:24:20;38.36;35.36;40.71;;
37163;Laerm;23057;48.554;14.454;2023-10-31T12:26:51;38.40;35.04;40.89;;
37163;Laerm;23057;48.554;14.454;2023-10-31T12:29:22;38.39;35.36;40.89;;
37163;Laerm;23057;48.554;14.454;2023-10-31T12:31:54;38.41;35.66;40.98;;
37163;Laerm;23057;48.554;14.454;2023-10-31T12:34:28;38.43;34.69;40.62;;
37163;Laerm;23057;48.554;14.454;2023-10-31T12:36:59;38.39;35.36;40.80;;
37163;Laerm;23057;48.554;14.454;2023-10-31T12:39:31;38.39;35.04;40.89;;
37163;Laerm;23057;48.554;14.454;2023-10-31T12:42:03;38.39;35.66;40.62;;
37163;Laerm;23057;48.554;14.454;2023-10-31T12:44:36;38.42;35.36;40.98;;
37163;Laerm;23057;48.554;14.454;2023-10-31T12:47:08;38.44;35.04;40.71;;
37163;Laerm;23057;48.554;14.454;2023-10-31T12:49:39;38.45;35.04;40.98;;
37163;Laerm;23057;48.554;14.454;2023-10-31T12:52:10;38.46;35.59;40.53;;
37163;Laerm;23057;48.554;14.454;2023-10-31T12:54:41;38.48;35.04;41.06;;
37163;Laerm;23057;48.554;14.454;2023-10-31T12:57:11;38.47;35.36;40.53;;
37163;Laerm;23057;48.554;14.454;2023-10-31T12:59:43;38.42;35.66;40.62;;
37163;Laerm;23057;48.554;14.454;2023-10-31T13:02:17;38.41;35.36;40.62;;
37163;Laerm;23057;48.554;14.454;2023-10-31T13:04:48;38.42;35.36;41.30;;
37163;Laerm;23057;48.554;14.454;2023-10-31T13:07:27;38.42;35.66;40.71;;
37163;Laerm;23057;48.554;14.454;2023-10-31T13:10:00;38.43;35.36;40.89;;
37163;Laerm;23057;48.554;14.454;2023-10-31T13:12:31;38.44;35.66;41.06;;
37163;Laerm;23057;48.554;14.454;2023-10-31T13:15:03;38.41;35.66;40.71;;
37163;Laerm;23057;48.554;14.454;2023-10-31T13:17:34;38.40;35.36;40.71;;
37163;Laerm;23057;48.554;14.454;2023-10-31T13:20:17;38.39;35.04;40.80;;
37163;Laerm;23057;48.554;14.454;2023-10-31T13:22:49;38.38;35.04;40.89;;
37163;Laerm;23057;48.554;14.454;2023-10-31T13:25:20;38.36;35.36;41.06;;
37163;Laerm;23057;48.554;14.454;2023-10-31T13:27:51;38.35;35.36;40.71;;
37163;Laerm;23057;48.554;14.454;2023-10-31T13:30:24;38.37;34.69;41.14;;
37163;Laerm;23057;48.554;14.454;2023-10-31T13:32:55;38.35;35.04;40.89;;
37163;Laerm;23057;48.554;14.454;2023-10-31T13:35:28;38.33;35.36;40.53;;
37163;Laerm;23057;48.554;14.454;2023-10-31T13:37:58;38.32;35.04;40.71;;
37163;Laerm;23057;48.554;14.454;2023-10-31T13:40:29;38.35;35.36;40.71;;
37163;Laerm;23057;48.554;14.454;2023-10-31T13:43:00;38.35;33.90;40.62;;
37163;Laerm;23057;48.554;14.454;2023-10-31T13:45:31;38.32;35.36;40.71;;
37163;Laerm;23057;48.554;14.454;2023-10-31T13:48:02;38.32;35.04;40.89;;
37163;Laerm;23057;48.554;14.454;2023-10-31T13:50:33;38.32;34.69;40.43;;
37163;Laerm;23057;48.554;14.454;2023-10-31T13:53:04;38.33;35.01;40.98;;
37163;Laerm;23057;48.554;14.454;2023-10-31T13:55:38;38.31;35.04;40.80;;
37163;Laerm;23057;48.554;14.454;2023-10-31T13:58:09;38.31;34.69;40.43;;
37163;Laerm;23057;48.554;14.454;2023-10-31T14:00:40;38.31;35.04;40.80;;